Time;durP1;ratioP1;P1;durP2;ratioP2;P2;SDS_P1;SDS_P2;PMS_P1;PMS_P2;Temp;Humidity;BMP_temperature;BMP_pressure;BME280_temperature;BME280_humidity;BME280_pressure;Samples;Min_cycle;Max_cycle;Signal;HPM_P1;HPM_P2
2022/10/17 00:02:12;;;;;;;6.40;5.67;;;;;;;;;;5135890;28;20501;-93
2022/10/17 00:05:12;;;;;;;7.80;6.63;;;;;;;;;;5144023;27;20443;-91
2022/10/17 00:08:01;;;;;;;7.17;6.57;;;;;;;;;;5151097;27;20474;-93
2022/10/17 00:10:57;;;;;;;7.43;6.10;;;;;;;;;;5140763;28;20444;-91
2022/10/17 00:13:48;;;;;;;7.30;6.60;;;;;;;;;;5139674;28;20459;-94
2022/10/17 00:16:38;;;;;;;6.73;6.10;;;;;;;;;;5131081;27;20451;-94
2022/10/17 00:19:28;;;;;;;8.70;6.40;;;;;;;;;;5141313;27;20475;-93
2022/10/17 00:22:20;;;;;;;7.00;6.30;;;;;;;;;;5116700;27;20443;-94
2022/10/17 00:28:14;;;;;;;7.53;6.03;;;;;;;;;;5123239;28;20546;-93
2022/10/17 00:31:04;;;;;;;6.47;5.83;;;;;;;;;;5122949;28;20445;-93
2022/10/17 00:33:54;;;;;;;6.87;5.93;;;;;;;;;;5130137;28;20477;-93
2022/10/17 00:36:43;;;;;;;6.23;5.63;;;;;;;;;;5110475;28;20452;-93
2022/10/17 00:39:34;;;;;;;6.70;5.97;;;;;;;;;;5126022;27;20469;-92
2022/10/17 00:42:23;;;;;;;6.27;5.57;;;;;;;;;;5120363;27;20462;-93
2022/10/17 00:45:17;;;;;;;6.57;5.77;;;;;;;;;;5110991;28;20460;-92
2022/10/17 00:48:08;;;;;;;7.03;6.33;;;;;;;;;;5125401;27;20988;-92
2022/10/17 00:50:57;;;;;;;6.00;5.50;;;;;;;;;;5125902;27;20447;-94
2022/10/17 00:53:47;;;;;;;6.37;5.87;;;;;;;;;;5119325;27;20452;-93
2022/10/17 00:56:48;;;;;;;6.67;6.07;;;;;;;;;;5133541;28;20440;-90
2022/10/17 00:59:42;;;;;;;6.53;5.97;;;;;;;;;;5134932;28;20958;-91
2022/10/17 01:02:32;;;;;;;8.20;6.40;;;;;;;;;;5115117;27;20433;-92
2022/10/17 01:05:22;;;;;;;5.83;5.23;;;;;;;;;;5123703;27;20455;-93
2022/10/17 01:08:12;;;;;;;7.40;5.43;;;;;;;;;;5115829;28;20844;-93
2022/10/17 01:11:06;;;;;;;6.17;5.67;;;;;;;;;;5119188;28;20460;-93
2022/10/17 01:14:00;;;;;;;11.73;5.83;;;;;;;;;;5131715;27;20492;-93
2022/10/17 01:20:14;;;;;;;5.80;5.17;;;;;;;;;;5123357;28;20484;-93
2022/10/17 01:23:16;;;;;;;5.53;5.03;;;;;;;;;;5112822;27;20431;-93
2022/10/17 01:26:14;;;;;;;5.00;4.60;;;;;;;;;;5108631;27;20448;-92
2022/10/17 01:29:20;;;;;;;5.80;5.13;;;;;;;;;;5118662;27;20448;-93
2022/10/17 01:35:23;;;;;;;5.57;4.70;;;;;;;;;;5109287;28;20464;-93
2022/10/17 01:38:15;;;;;;;5.47;4.83;;;;;;;;;;5107263;28;20524;-93
2022/10/17 01:41:07;;;;;;;5.37;4.80;;;;;;;;;;5115589;28;20488;-93
2022/10/17 01:44:01;;;;;;;5.10;4.60;;;;;;;;;;5117448;27;20444;-92
2022/10/17 01:46:52;;;;;;;5.13;4.53;;;;;;;;;;5123024;28;20441;-89
2022/10/17 01:49:46;;;;;;;5.27;4.70;;;;;;;;;;5069986;28;20513;-92
2022/10/17 01:52:40;;;;;;;5.10;4.63;;;;;;;;;;5117232;27;20975;-92
2022/10/17 01:55:38;;;;;;;4.87;4.37;;;;;;;;;;5121015;27;20459;-92
2022/10/17 01:58:37;;;;;;;4.80;4.40;;;;;;;;;;5107594;27;20457;-92
2022/10/17 02:01:27;;;;;;;4.50;4.10;;;;;;;;;;5115259;28;20827;-93
2022/10/17 02:04:17;;;;;;;6.10;5.03;;;;;;;;;;5121709;27;20440;-92
2022/10/17 02:07:14;;;;;;;5.73;4.20;;;;;;;;;;5112741;28;20833;-92
2022/10/17 02:10:06;;;;;;;4.70;4.30;;;;;;;;;;5109101;28;20447;-93
2022/10/17 02:13:00;;;;;;;4.70;4.07;;;;;;;;;;5115228;28;20469;-93
2022/10/17 02:16:00;;;;;;;5.17;4.73;;;;;;;;;;5125220;27;20460;-92
2022/10/17 02:19:02;;;;;;;4.37;4.07;;;;;;;;;;5114949;28;20471;-91
2022/10/17 02:21:54;;;;;;;6.73;4.53;;;;;;;;;;5118436;28;20471;-92
2022/10/17 02:25:00;;;;;;;4.50;4.10;;;;;;;;;;5117575;27;20448;-93
2022/10/17 02:27:53;;;;;;;6.40;4.77;;;;;;;;;;5108941;27;20472;-93
2022/10/17 02:30:44;;;;;;;4.70;4.30;;;;;;;;;;5119608;28;20439;-92
2022/10/17 02:33:35;;;;;;;4.67;4.27;;;;;;;;;;5112636;28;20959;-92
2022/10/17 02:36:27;;;;;;;4.33;3.93;;;;;;;;;;5132220;28;20456;-91
2022/10/17 02:39:18;;;;;;;4.40;4.00;;;;;;;;;;5099531;28;20441;-93
2022/10/17 02:42:11;;;;;;;7.43;4.77;;;;;;;;;;5115357;28;20449;-93
2022/10/17 02:45:01;;;;;;;6.03;4.97;;;;;;;;;;5114743;28;20448;-93
2022/10/17 02:47:56;;;;;;;5.70;4.70;;;;;;;;;;5121243;27;20468;-92
2022/10/17 02:50:53;;;;;;;5.30;4.90;;;;;;;;;;5116736;28;20428;-93
2022/10/17 02:57:03;;;;;;;5.20;4.80;;;;;;;;;;5132586;28;20444;-90
2022/10/17 02:59:59;;;;;;;5.30;4.90;;;;;;;;;;5137866;27;20474;-91
2022/10/17 03:02:52;;;;;;;5.47;5.07;;;;;;;;;;5131323;28;20471;-91
2022/10/17 03:05:42;;;;;;;5.50;4.73;;;;;;;;;;5114710;28;20448;-93
2022/10/17 03:08:31;;;;;;;8.00;4.73;;;;;;;;;;5116955;28;20482;-93
2022/10/17 03:11:20;;;;;;;5.77;4.80;;;;;;;;;;5130086;28;20468;-91
2022/10/17 03:14:09;;;;;;;5.50;5.00;;;;;;;;;;5126836;28;20452;-91
2022/10/17 03:17:00;;;;;;;5.90;4.73;;;;;;;;;;5132249;27;20476;-90
2022/10/17 03:19:50;;;;;;;5.07;4.67;;;;;;;;;;5125188;28;20452;-91
2022/10/17 03:22:39;;;;;;;5.47;4.97;;;;;;;;;;5129814;28;20440;-91
2022/10/17 03:25:28;;;;;;;4.80;4.50;;;;;;;;;;5128424;28;20436;-91
2022/10/17 03:28:20;;;;;;;4.83;4.33;;;;;;;;;;5133269;28;20459;-90
2022/10/17 03:31:10;;;;;;;4.90;4.60;;;;;;;;;;5123800;28;20446;-91
2022/10/17 03:34:00;;;;;;;4.50;4.10;;;;;;;;;;5129306;28;20436;-90
2022/10/17 03:36:49;;;;;;;5.27;4.83;;;;;;;;;;5135840;28;20459;-91
2022/10/17 03:39:38;;;;;;;5.17;4.70;;;;;;;;;;5133402;28;20431;-92
2022/10/17 03:42:28;;;;;;;4.23;4.03;;;;;;;;;;5127207;28;20551;-92
2022/10/17 03:45:17;;;;;;;4.73;4.33;;;;;;;;;;5115820;28;20465;-92
2022/10/17 03:48:07;;;;;;;4.20;3.90;;;;;;;;;;5103747;28;20468;-92
2022/10/17 03:51:01;;;;;;;4.30;4.00;;;;;;;;;;5119028;28;20444;-92
2022/10/17 03:53:49;;;;;;;4.57;4.03;;;;;;;;;;5120512;28;20479;-91
2022/10/17 03:56:38;;;;;;;4.40;4.10;;;;;;;;;;5136543;27;20431;-90
2022/10/17 03:59:32;;;;;;;4.40;4.10;;;;;;;;;;5139084;28;20436;-91
2022/10/17 04:02:34;;;;;;;4.33;4.03;;;;;;;;;;5130752;27;20467;-91
2022/10/17 04:05:33;;;;;;;4.33;4.03;;;;;;;;;;5138662;27;20436;-92
2022/10/17 04:08:23;;;;;;;4.40;3.97;;;;;;;;;;5137785;27;20479;-90
2022/10/17 04:11:14;;;;;;;4.67;4.20;;;;;;;;;;5129265;28;20463;-92
2022/10/17 04:14:03;;;;;;;6.73;4.40;;;;;;;;;;5107489;28;20452;-93
2022/10/17 04:16:53;;;;;;;5.03;4.27;;;;;;;;;;5110109;28;20460;-92
2022/10/17 04:19:42;;;;;;;4.00;3.70;;;;;;;;;;5112821;28;20444;-92
2022/10/17 04:22:31;;;;;;;4.87;4.00;;;;;;;;;;5115876;28;20487;-92
2022/10/17 04:25:22;;;;;;;4.27;3.90;;;;;;;;;;5115583;28;20452;-92
2022/10/17 04:28:11;;;;;;;4.93;4.43;;;;;;;;;;5114898;28;20518;-92
2022/10/17 04:31:00;;;;;;;3.87;3.57;;;;;;;;;;5110019;28;20528;-92
2022/10/17 04:33:50;;;;;;;4.30;3.93;;;;;;;;;;5115742;28;20452;-92
2022/10/17 04:36:40;;;;;;;4.37;3.97;;;;;;;;;;5118220;28;20823;-93
2022/10/17 04:39:30;;;;;;;6.60;4.20;;;;;;;;;;5124418;27;20448;-92
2022/10/17 04:42:21;;;;;;;5.23;4.63;;;;;;;;;;5114251;28;21039;-91
2022/10/17 04:45:11;;;;;;;4.37;3.97;;;;;;;;;;5119228;28;20983;-92
2022/10/17 04:48:03;;;;;;;4.87;4.23;;;;;;;;;;5106533;28;20475;-92
2022/10/17 04:50:57;;;;;;;4.57;4.17;;;;;;;;;;5116094;28;20474;-92
2022/10/17 04:53:46;;;;;;;5.40;4.03;;;;;;;;;;5121581;28;20471;-93
2022/10/17 04:56:35;;;;;;;4.70;4.30;;;;;;;;;;5124433;28;20449;-91
2022/10/17 04:59:26;;;;;;;4.43;4.10;;;;;;;;;;5136673;28;20449;-91
2022/10/17 05:02:15;;;;;;;4.73;4.27;;;;;;;;;;5114468;27;20479;-92
2022/10/17 05:05:05;;;;;;;4.70;4.30;;;;;;;;;;5109954;28;20444;-92
2022/10/17 12:29:27;;;;;;;7.23;6.67;;;;;;;;;;5971004;23;21358;-94
2022/10/17 12:32:27;;;;;;;12.03;10.13;;;;;;;;;;4996713;28;20466;-92
2022/10/17 12:35:40;;;;;;;7.33;6.60;;;;;;;;;;4998172;28;20506;-93
2022/10/17 18:55:24;;;;;;;20.13;18.00;;;;;;;;;;5031729;28;20531;-93
2022/10/17 18:58:18;;;;;;;20.00;18.20;;;;;;;;;;5034760;28;20467;-93
2022/10/17 19:01:23;;;;;;;20.63;18.60;;;;;;;;;;5035246;28;20457;-94
2022/10/17 19:04:22;;;;;;;19.57;17.83;;;;;;;;;;5027172;28;20464;-93
2022/10/17 19:07:15;;;;;;;19.07;17.37;;;;;;;;;;5031830;28;20453;-95
2022/10/17 19:10:10;;;;;;;16.80;15.30;;;;;;;;;;5025710;28;20440;-93
2022/10/17 19:13:03;;;;;;;15.83;14.30;;;;;;;;;;5031126;28;20437;-94
2022/10/17 19:15:55;;;;;;;16.03;14.40;;;;;;;;;;5024175;28;20459;-95
2022/10/17 19:18:50;;;;;;;14.20;13.00;;;;;;;;;;5032410;28;20452;-92
2022/10/17 19:21:40;;;;;;;11.50;10.50;;;;;;;;;;5033613;28;20473;-93
2022/10/17 19:27:48;;;;;;;9.17;8.37;;;;;;;;;;5035197;28;20448;-93
2022/10/17 19:31:05;;;;;;;7.37;6.60;;;;;;;;;;5032338;28;20485;-91
2022/10/17 19:34:16;;;;;;;5.90;5.40;;;;;;;;;;5027674;28;20437;-94
2022/10/17 19:37:13;;;;;;;6.50;5.50;;;;;;;;;;5153463;27;149137;-90
2022/10/17 19:40:03;;;;;;;6.90;5.60;;;;;;;;;;5168568;27;20443;-89
2022/10/17 19:42:53;;;;;;;5.00;4.60;;;;;;;;;;5158822;27;20542;-90
2022/10/17 19:45:46;;;;;;;5.23;4.83;;;;;;;;;;5164489;27;20503;-90
2022/10/17 19:48:36;;;;;;;5.20;4.30;;;;;;;;;;5170488;27;20462;-89
2022/10/17 19:51:27;;;;;;;4.90;4.40;;;;;;;;;;5168199;27;20459;-91
2022/10/17 19:54:20;;;;;;;5.10;4.60;;;;;;;;;;5159326;27;20460;-90
2022/10/17 19:57:12;;;;;;;5.00;4.60;;;;;;;;;;5161353;27;20472;-90
2022/10/17 20:00:03;;;;;;;5.47;4.30;;;;;;;;;;5167145;27;20427;-90
2022/10/17 20:02:56;;;;;;;4.73;4.30;;;;;;;;;;5150142;27;20443;-91
2022/10/17 20:05:59;;;;;;;5.70;4.57;;;;;;;;;;5155380;27;20977;-92
2022/10/17 20:08:49;;;;;;;5.23;4.20;;;;;;;;;;5157150;27;20438;-91
2022/10/17 20:11:41;;;;;;;5.07;4.63;;;;;;;;;;5155126;27;20475;-92
2022/10/17 20:14:30;;;;;;;4.80;4.03;;;;;;;;;;5157952;27;20439;-92
2022/10/17 20:17:21;;;;;;;7.87;4.10;;;;;;;;;;5161876;27;20469;-92
2022/10/17 20:20:17;;;;;;;4.23;3.93;;;;;;;;;;5149191;27;20476;-93
2022/10/17 20:23:09;;;;;;;3.70;3.40;;;;;;;;;;5148080;27;20450;-93
2022/10/17 20:26:00;;;;;;;4.93;3.83;;;;;;;;;;5153914;27;20438;-90
2022/10/17 20:29:29;;;;;;;5.60;3.73;;;;;;;;;;5164191;27;20435;-91
2022/10/17 20:32:22;;;;;;;4.53;4.07;;;;;;;;;;5144936;27;20486;-93
2022/10/17 20:35:21;;;;;;;4.40;3.60;;;;;;;;;;5153788;27;20455;-92
2022/10/17 20:38:15;;;;;;;4.00;3.70;;;;;;;;;;5146937;27;20440;-93
2022/10/17 20:41:03;;;;;;;4.70;3.60;;;;;;;;;;5152233;27;20455;-94
2022/10/17 20:43:54;;;;;;;4.33;3.43;;;;;;;;;;5159982;27;20442;-93
2022/10/17 20:46:54;;;;;;;3.50;3.20;;;;;;;;;;5154898;27;20444;-93
2022/10/17 20:49:54;;;;;;;4.00;3.70;;;;;;;;;;5130060;28;20463;-93
2022/10/17 20:52:57;;;;;;;4.00;3.60;;;;;;;;;;5137660;27;20455;-93
2022/10/17 20:56:17;;;;;;;3.07;2.87;;;;;;;;;;5136456;27;20462;-90
2022/10/17 20:59:11;;;;;;;3.50;2.80;;;;;;;;;;5145234;27;20491;-89
2022/10/17 21:02:02;;;;;;;3.70;3.40;;;;;;;;;;5151015;27;20468;-90
2022/10/17 21:05:12;;;;;;;3.37;3.10;;;;;;;;;;5144923;27;20504;-90
2022/10/17 21:08:04;;;;;;;3.60;3.07;;;;;;;;;;5139161;27;20444;-90
2022/10/17 21:10:53;;;;;;;2.77;2.57;;;;;;;;;;5138466;27;20456;-90
2022/10/17 21:13:43;;;;;;;3.70;3.23;;;;;;;;;;5141555;27;20461;-90
2022/10/17 21:16:33;;;;;;;4.13;3.13;;;;;;;;;;5154274;27;20483;-90
2022/10/17 21:19:23;;;;;;;3.50;3.20;;;;;;;;;;5151419;27;20439;-90
2022/10/17 21:22:12;;;;;;;3.20;3.00;;;;;;;;;;5150443;27;20449;-91
2022/10/17 21:25:01;;;;;;;3.30;3.00;;;;;;;;;;5150093;27;20425;-91
2022/10/17 21:27:53;;;;;;;3.20;3.00;;;;;;;;;;5152764;27;20527;-92
2022/10/17 21:30:42;;;;;;;3.60;2.90;;;;;;;;;;5150790;27;20464;-93
2022/10/17 21:33:31;;;;;;;4.00;3.70;;;;;;;;;;5137404;27;20466;-93
2022/10/17 21:36:22;;;;;;;3.23;3.03;;;;;;;;;;5141332;27;20486;-92
2022/10/17 21:39:12;;;;;;;2.90;2.70;;;;;;;;;;5121662;27;20440;-91
2022/10/17 21:42:04;;;;;;;4.13;3.73;;;;;;;;;;5127685;27;20464;-91
2022/10/17 21:44:53;;;;;;;3.63;3.33;;;;;;;;;;5133686;27;20440;-91
2022/10/17 21:47:42;;;;;;;4.97;3.73;;;;;;;;;;5129923;27;20452;-92
2022/10/17 21:50:48;;;;;;;3.90;3.20;;;;;;;;;;5137769;27;20467;-92
2022/10/17 21:53:40;;;;;;;5.73;3.87;;;;;;;;;;5129168;27;20455;-92
2022/10/17 21:56:31;;;;;;;4.37;3.57;;;;;;;;;;5144122;27;20445;-90
2022/10/17 21:59:20;;;;;;;4.40;3.70;;;;;;;;;;5147978;27;20538;-90
2022/10/17 22:02:09;;;;;;;4.20;3.90;;;;;;;;;;5120362;28;20471;-93
2022/10/17 22:04:59;;;;;;;6.37;4.23;;;;;;;;;;5133102;27;20455;-93
2022/10/17 22:07:48;;;;;;;5.87;4.83;;;;;;;;;;5135345;27;20514;-92
2022/10/17 22:10:39;;;;;;;9.63;5.20;;;;;;;;;;5132827;27;20486;-92
2022/10/17 22:13:28;;;;;;;6.03;5.43;;;;;;;;;;5126849;27;20445;-93
2022/10/17 22:16:17;;;;;;;5.40;5.00;;;;;;;;;;5127195;27;20467;-92
2022/10/17 22:19:07;;;;;;;6.13;5.53;;;;;;;;;;5130654;27;20472;-93
2022/10/17 22:21:57;;;;;;;6.77;6.17;;;;;;;;;;5129975;27;20468;-93
2022/10/17 22:24:47;;;;;;;7.50;6.70;;;;;;;;;;5140116;27;20443;-92
2022/10/17 22:27:45;;;;;;;7.93;7.13;;;;;;;;;;5129139;27;20445;-92
2022/10/17 22:30:37;;;;;;;6.97;6.37;;;;;;;;;;5133521;27;20463;-93
2022/10/17 22:33:27;;;;;;;7.60;6.90;;;;;;;;;;5123427;27;20463;-93
2022/10/17 22:36:17;;;;;;;8.60;7.07;;;;;;;;;;5129419;27;20534;-91
2022/10/17 22:39:14;;;;;;;7.70;7.00;;;;;;;;;;5135517;27;20456;-93
2022/10/17 22:42:03;;;;;;;8.80;7.93;;;;;;;;;;5135155;27;20482;-92
2022/10/17 22:44:54;;;;;;;8.10;7.30;;;;;;;;;;5131375;27;20467;-93
2022/10/17 22:47:45;;;;;;;8.60;7.80;;;;;;;;;;5135179;27;20451;-92
2022/10/17 22:50:33;;;;;;;7.87;6.80;;;;;;;;;;5132247;27;20467;-93
2022/10/17 22:53:25;;;;;;;8.80;7.93;;;;;;;;;;5132556;27;20447;-92
2022/10/17 22:56:15;;;;;;;8.23;7.53;;;;;;;;;;5127082;27;20439;-93
2022/10/17 22:59:04;;;;;;;8.77;7.33;;;;;;;;;;5130913;27;20443;-93
2022/10/17 23:01:54;;;;;;;11.13;9.40;;;;;;;;;;5129274;27;20475;-90
2022/10/17 23:04:43;;;;;;;8.80;7.80;;;;;;;;;;5131254;27;20587;-93
2022/10/17 23:07:34;;;;;;;9.60;8.60;;;;;;;;;;5134592;27;20447;-94
2022/10/17 23:10:31;;;;;;;12.03;9.00;;;;;;;;;;5133967;27;20478;-92
2022/10/17 23:20:06;;;;;;;11.40;9.10;;;;;;;;;;5127352;28;20452;-92
2022/10/17 23:29:46;;;;;;;11.37;9.20;;;;;;;;;;5106134;28;20484;-93
2022/10/17 23:39:34;;;;;;;11.13;9.70;;;;;;;;;;5100208;28;20456;-92
2022/10/17 23:46:06;;;;;;;13.10;9.10;;;;;;;;;;5097765;28;20496;-94
2022/10/17 23:56:08;;;;;;;9.90;8.40;;;;;;;;;;5096209;28;20461;-93
